Time;durP1;ratioP1;P1;durP2;ratioP2;P2;SDS_P1;SDS_P2;PMS_P1;PMS_P2;Temp;Humidity;BMP_temperature;BMP_pressure;BME280_temperature;BME280_humidity;BME280_pressure;Samples;Min_cycle;Max_cycle;Signal;HPM_P1;HPM_P2
2021/07/17 00:01:17;;;;;;;8.63;4.13;;;;;;;19.07;62.54;96442.59;5064965;28;20044;-61
2021/07/17 00:03:44;;;;;;;6.05;4.45;;;;;;;18.88;63.43;96460.31;5064613;28;20053;-62
2021/07/17 00:06:11;;;;;;;6.55;4.00;;;;;;;18.87;63.19;96422.25;5064801;28;20079;-61
2021/07/17 00:08:37;;;;;;;11.00;4.82;;;;;;;18.52;63.22;96385.88;5064683;28;20066;-60
2021/07/17 00:11:05;;;;;;;4.53;3.92;;;;;;;18.85;63.45;96435.94;5052972;28;20049;-62
2021/07/17 00:13:31;;;;;;;6.03;3.88;;;;;;;18.86;63.86;96431.09;5046006;28;20060;-62
2021/07/17 00:15:59;;;;;;;9.02;4.50;;;;;;;18.83;63.89;96449.59;5044350;28;20537;-63
2021/07/17 00:18:25;;;;;;;6.63;4.28;;;;;;;18.86;64.19;96440.31;5045874;28;20045;-61
2021/07/17 00:20:52;;;;;;;7.95;4.85;;;;;;;18.16;64.17;96309.41;5044929;28;20519;-61
2021/07/17 00:23:19;;;;;;;12.00;5.07;;;;;;;18.82;64.28;96445.25;5044711;28;20071;-62
2021/07/17 00:25:48;;;;;;;8.68;4.95;;;;;;;18.48;64.10;96385.94;5046002;28;20071;-61
2021/07/17 00:28:15;;;;;;;8.10;4.75;;;;;;;18.92;63.89;96427.31;5044428;28;20049;-65
2021/07/17 00:30:42;;;;;;;6.18;4.05;;;;;;;18.38;63.26;96325.31;5044144;28;20514;-61
2021/07/17 00:33:09;;;;;;;7.88;3.92;;;;;;;19.01;62.83;96424.69;5043742;28;20053;-62
2021/07/17 00:35:36;;;;;;;7.35;3.90;;;;;;;18.94;63.17;96419.25;5045498;28;20045;-62
2021/07/17 00:38:04;;;;;;;4.95;3.95;;;;;;;18.72;64.37;96432.25;5045657;28;20164;-62
2021/07/17 00:40:33;;;;;;;6.85;4.28;;;;;;;18.37;64.51;96374.16;5046256;28;20488;-61
2021/07/17 00:43:00;;;;;;;11.77;4.28;;;;;;;18.52;65.14;96420.31;5045363;28;20056;-61
2021/07/17 00:45:27;;;;;;;7.43;4.65;;;;;;;18.22;65.46;96381.34;5045881;28;20156;-62
2021/07/17 00:47:54;;;;;;;6.90;4.10;;;;;;;18.53;65.42;96424.69;5045248;28;20067;-61
2021/07/17 00:50:22;;;;;;;6.03;3.53;;;;;;;18.17;65.43;96365.03;5043764;28;20061;-62
2021/07/17 00:52:49;;;;;;;5.40;4.05;;;;;;;18.17;65.74;96376.25;5044849;28;20059;-63
2021/07/17 00:55:20;;;;;;;8.20;4.38;;;;;;;18.56;65.40;96420.25;5043985;28;20053;-61
2021/07/17 00:57:47;;;;;;;5.97;3.95;;;;;;;18.55;65.53;96413.84;5044115;28;20635;-61
2021/07/17 01:00:16;;;;;;;6.88;4.20;;;;;;;18.48;65.84;96408.38;5043975;28;20061;-61
2021/07/17 01:02:48;;;;;;;11.73;4.15;;;;;;;18.45;66.08;96420.47;5043547;28;20045;-62
2021/07/17 01:05:16;;;;;;;6.75;3.70;;;;;;;18.45;65.82;96426.09;5043686;28;20053;-61
2021/07/17 01:07:47;;;;;;;26.08;5.75;;;;;;;18.48;65.59;96425.22;5044938;28;20049;-62
2021/07/17 01:10:19;;;;;;;10.75;4.82;;;;;;;18.43;65.81;96425.72;5049433;28;20057;-64
2021/07/17 01:12:50;;;;;;;9.93;4.10;;;;;;;18.48;65.43;96419.59;5063790;28;20063;-62
2021/07/17 01:15:18;;;;;;;6.38;4.40;;;;;;;18.41;65.89;96419.00;5064690;28;20564;-61
2021/07/17 01:17:43;;;;;;;6.60;4.20;;;;;;;17.55;65.73;96284.00;5064856;28;20116;-61
2021/07/17 01:20:14;;;;;;;7.10;4.03;;;;;;;18.49;65.66;96420.41;5063503;28;20058;-61
2021/07/17 01:22:41;;;;;;;7.30;3.85;;;;;;;17.54;65.90;96271.25;5064593;28;20522;-62
2021/07/17 01:25:11;;;;;;;8.85;4.55;;;;;;;18.28;66.04;96393.63;5064872;28;20583;-61
2021/07/17 01:27:39;;;;;;;5.03;3.95;;;;;;;18.40;65.99;96406.19;5063477;28;20064;-61
2021/07/17 01:30:09;;;;;;;5.57;4.38;;;;;;;18.44;65.76;96402.09;5062994;28;20496;-62
2021/07/17 01:32:36;;;;;;;9.98;3.92;;;;;;;18.36;66.00;96405.44;5063751;28;20109;-62
2021/07/17 01:35:03;;;;;;;5.00;3.63;;;;;;;17.86;65.83;96332.94;5064317;28;20440;-62
2021/07/17 01:37:30;;;;;;;6.00;3.78;;;;;;;18.38;65.98;96409.44;5062682;28;20072;-62
2021/07/17 01:39:57;;;;;;;5.28;4.47;;;;;;;18.29;66.19;96400.78;5063616;28;20426;-62
2021/07/17 01:42:24;;;;;;;8.50;4.40;;;;;;;18.26;66.32;96401.66;5063992;28;20059;-62
2021/07/17 01:44:50;;;;;;;5.63;4.10;;;;;;;18.37;66.02;96405.00;5062789;28;20060;-62
2021/07/17 01:47:17;;;;;;;8.65;4.07;;;;;;;18.43;65.43;96397.69;5063977;28;20049;-62
2021/07/17 01:49:44;;;;;;;6.35;4.88;;;;;;;18.39;65.56;96399.78;5063615;28;20049;-62
2021/07/17 01:52:11;;;;;;;15.73;5.15;;;;;;;18.28;65.89;96393.63;5063057;28;20423;-62
2021/07/17 01:54:39;;;;;;;8.82;4.43;;;;;;;18.26;66.18;96395.28;5064094;28;20061;-62
2021/07/17 01:57:06;;;;;;;6.35;4.40;;;;;;;18.20;66.47;96397.00;5062683;28;20563;-62
2021/07/17 01:59:40;;;;;;;6.05;4.35;;;;;;;17.77;66.42;96338.34;5064558;28;20059;-62
2021/07/17 02:02:07;;;;;;;8.85;4.35;;;;;;;18.03;66.94;96390.59;5061909;28;20568;-64
2021/07/17 02:04:35;;;;;;;5.47;4.20;;;;;;;18.00;67.36;96397.06;5062379;28;20068;-63
2021/07/17 02:07:03;;;;;;;9.07;4.00;;;;;;;17.96;67.49;96404.75;5062202;28;20531;-62
2021/07/17 02:09:30;;;;;;;8.15;3.97;;;;;;;17.99;67.55;96398.28;5063414;28;20052;-61
2021/07/17 02:11:57;;;;;;;6.15;4.35;;;;;;;17.86;67.30;96372.19;5044171;28;20060;-62
2021/07/17 02:14:24;;;;;;;7.72;4.32;;;;;;;17.91;67.52;96385.66;5043553;28;20068;-63
2021/07/17 02:16:51;;;;;;;7.60;4.43;;;;;;;17.90;67.63;96384.09;5042440;28;20061;-62
2021/07/17 02:19:21;;;;;;;6.30;4.32;;;;;;;17.84;68.02;96385.81;5043697;28;20455;-61
2021/07/17 02:21:50;;;;;;;7.88;4.65;;;;;;;17.80;68.21;96390.69;5042138;28;20482;-61
2021/07/17 02:24:17;;;;;;;6.30;4.15;;;;;;;17.35;68.27;96359.63;5042094;28;20435;-62
2021/07/17 02:26:47;;;;;;;6.40;3.95;;;;;;;17.70;68.62;96402.94;5043347;28;20543;-61
2021/07/17 02:29:15;;;;;;;7.78;3.80;;;;;;;17.66;68.53;96388.19;5042203;28;20052;-62
2021/07/17 02:31:42;;;;;;;11.35;4.20;;;;;;;17.45;69.06;96363.47;5041966;28;20725;-63
2021/07/17 02:34:10;;;;;;;7.55;4.18;;;;;;;17.67;68.75;96382.16;5042047;28;20064;-62
2021/07/17 02:36:38;;;;;;;7.10;3.85;;;;;;;17.72;68.43;96383.69;5042359;28;20096;-60
2021/07/17 02:39:06;;;;;;;9.55;4.35;;;;;;;17.77;68.12;96385.97;5042426;28;20436;-62
2021/07/17 02:41:34;;;;;;;7.40;4.75;;;;;;;17.76;68.32;96378.78;5042384;28;20072;-61
2021/07/17 02:44:00;;;;;;;7.75;5.18;;;;;;;17.77;68.08;96374.75;5043030;28;20057;-62
2021/07/17 02:46:27;;;;;;;11.35;5.20;;;;;;;17.82;67.96;96382.66;5041785;28;20362;-63
2021/07/17 02:48:54;;;;;;;9.20;5.13;;;;;;;17.75;68.02;96382.81;5041899;28;20045;-61
2021/07/17 02:51:21;;;;;;;7.10;5.07;;;;;;;17.02;68.39;96324.31;5042240;28;20056;-62
2021/07/17 02:53:47;;;;;;;9.68;5.68;;;;;;;17.69;68.21;96373.31;5041787;28;20541;-63
2021/07/17 02:56:14;;;;;;;8.00;4.78;;;;;;;17.64;68.57;96387.88;5041913;28;20051;-61
2021/07/17 02:58:41;;;;;;;7.53;4.50;;;;;;;17.59;68.61;96388.38;5041760;28;20085;-61
2021/07/17 03:01:08;;;;;;;6.75;4.57;;;;;;;16.84;69.07;96279.09;5042405;28;20053;-63
2021/07/17 03:03:35;;;;;;;7.88;4.60;;;;;;;16.98;69.19;96311.59;5041851;28;20496;-63
2021/07/17 03:06:02;;;;;;;9.70;5.35;;;;;;;16.95;69.19;96292.84;5043518;28;20049;-62
2021/07/17 03:08:29;;;;;;;8.65;4.70;;;;;;;17.56;69.08;96386.44;5043281;28;20434;-62
2021/07/17 03:10:56;;;;;;;7.47;4.03;;;;;;;17.52;69.13;96385.69;5051089;28;20098;-62
2021/07/17 03:13:22;;;;;;;11.98;4.70;;;;;;;17.59;68.98;96385.56;5061239;28;20139;-63
2021/07/17 03:15:50;;;;;;;9.60;4.72;;;;;;;17.65;68.51;96389.44;5062974;28;20094;-62
2021/07/17 03:18:18;;;;;;;8.85;4.53;;;;;;;17.73;68.31;96379.66;5061832;28;20131;-60
2021/07/17 03:20:46;;;;;;;10.27;5.03;;;;;;;17.70;68.20;96381.28;5062080;28;20059;-61
2021/07/17 03:23:13;;;;;;;13.23;4.50;;;;;;;17.80;68.02;96385.09;5063105;28;20052;-60
2021/07/17 03:25:41;;;;;;;11.98;4.63;;;;;;;17.50;67.90;96332.13;5061438;28;20529;-60
2021/07/17 03:28:07;;;;;;;13.77;4.75;;;;;;;17.82;67.86;96382.66;5062739;28;20064;-62
2021/07/17 03:30:35;;;;;;;6.72;4.20;;;;;;;17.69;68.08;96381.72;5063508;28;20061;-60
2021/07/17 03:33:03;;;;;;;7.55;3.80;;;;;;;17.73;67.98;96382.47;5063796;28;20127;-60
2021/07/17 03:35:30;;;;;;;8.35;4.40;;;;;;;17.56;67.79;96347.22;5065002;28;20057;-63
2021/07/17 03:37:57;;;;;;;9.88;4.55;;;;;;;17.96;67.46;96383.13;5065512;28;20079;-60
2021/07/17 03:40:24;;;;;;;7.60;4.53;;;;;;;18.05;66.88;96368.53;5067133;28;20057;-62
2021/07/17 03:42:51;;;;;;;8.25;4.43;;;;;;;18.23;66.38;96390.53;5064564;28;20450;-61
2021/07/17 03:45:18;;;;;;;10.30;5.28;;;;;;;17.87;65.85;96310.09;5064890;28;20056;-61
2021/07/17 03:47:44;;;;;;;10.77;5.43;;;;;;;18.34;66.02;96396.69;5066551;28;20052;-62
2021/07/17 03:50:11;;;;;;;8.07;4.90;;;;;;;18.40;65.71;96386.56;5066036;28;20064;-62
2021/07/17 03:52:38;;;;;;;9.88;4.70;;;;;;;18.42;65.61;96381.28;5064876;28;20443;-61
2021/07/17 03:55:06;;;;;;;9.15;4.70;;;;;;;18.61;65.42;96384.03;5066016;28;20079;-61
2021/07/17 03:57:32;;;;;;;8.63;5.10;;;;;;;18.56;65.59;96353.69;5064862;28;20056;-61
2021/07/17 03:59:59;;;;;;;6.07;4.40;;;;;;;18.79;64.38;96380.78;5066561;28;20086;-61
2021/07/17 04:02:29;;;;;;;6.25;4.30;;;;;;;18.80;64.20;96374.72;5066206;28;20080;-61
2021/07/17 04:04:57;;;;;;;9.50;5.03;;;;;;;19.05;63.09;96385.28;5065829;28;20052;-61
2021/07/17 04:07:24;;;;;;;7.78;3.92;;;;;;;18.36;62.87;96271.66;5064638;28;20117;-62
2021/07/17 04:09:51;;;;;;;6.65;3.53;;;;;;;18.96;62.62;96338.22;5064775;28;20391;-61
2021/07/17 04:12:18;;;;;;;7.00;4.13;;;;;;;19.30;62.11;96363.75;5044538;28;20053;-61
2021/07/17 04:14:44;;;;;;;6.38;4.35;;;;;;;19.36;61.78;96361.97;5044256;28;20057;-62
2021/07/17 04:17:11;;;;;;;6.03;4.75;;;;;;;19.21;61.48;96310.22;5045566;28;20631;-61
2021/07/17 04:19:38;;;;;;;7.57;3.80;;;;;;;19.44;61.05;96329.66;5044539;28;20466;-62
2021/07/17 04:22:05;;;;;;;5.85;4.07;;;;;;;19.84;60.87;96363.03;5046105;28;20053;-62
2021/07/17 04:24:32;;;;;;;13.45;4.60;;;;;;;19.94;60.99;96359.06;5046430;28;20041;-64
2021/07/17 04:26:58;;;;;;;8.50;4.25;;;;;;;19.85;61.10;96342.91;5044130;28;20522;-62
2021/07/17 04:29:25;;;;;;;8.43;3.97;;;;;;;20.06;61.13;96361.13;5044083;28;20135;-62
2021/07/17 04:31:52;;;;;;;8.95;4.18;;;;;;;20.20;60.66;96335.41;5045425;28;20068;-62
2021/07/17 04:34:24;;;;;;;10.65;4.22;;;;;;;20.47;59.94;96372.31;5045145;28;20135;-61
2021/07/17 04:36:51;;;;;;;10.23;4.22;;;;;;;20.57;59.51;96363.50;5044288;28;20052;-63
2021/07/17 04:39:18;;;;;;;6.95;4.35;;;;;;;20.49;59.25;96313.53;5043682;28;20515;-63
2021/07/17 04:41:45;;;;;;;6.63;4.90;;;;;;;20.48;58.98;96283.81;5044065;28;20053;-62
2021/07/17 04:44:12;;;;;;;9.07;4.85;;;;;;;21.14;58.22;96348.31;5043980;28;20063;-61
2021/07/17 04:46:38;;;;;;;12.05;4.90;;;;;;;21.33;56.87;96349.22;5045031;28;20434;-61
2021/07/17 04:49:05;;;;;;;8.57;4.68;;;;;;;21.46;55.63;96356.41;5043717;28;20372;-62
2021/07/17 04:51:32;;;;;;;11.70;4.70;;;;;;;21.41;54.52;96305.47;5043102;28;20061;-62
2021/07/17 04:53:59;;;;;;;8.23;4.85;;;;;;;21.64;53.34;96364.97;5044933;28;20053;-62
2021/07/17 04:56:26;;;;;;;9.13;4.82;;;;;;;22.03;52.69;96347.41;5044767;28;20534;-62
2021/07/17 04:58:52;;;;;;;10.10;4.50;;;;;;;22.20;51.48;96345.91;5043747;28;20068;-62
2021/07/17 05:01:19;;;;;;;6.60;4.28;;;;;;;22.39;51.69;96341.91;5043792;28;20045;-62
2021/07/17 05:03:46;;;;;;;11.65;4.40;;;;;;;22.54;50.82;96341.38;5045037;28;20122;-63
2021/07/17 05:06:13;;;;;;;10.88;4.47;;;;;;;22.65;51.36;96341.72;5043555;28;20049;-62
2021/07/17 05:08:40;;;;;;;9.50;4.90;;;;;;;22.53;51.93;96294.59;5043348;28;20057;-62
2021/07/17 05:11:06;;;;;;;14.35;4.85;;;;;;;22.39;51.76;96257.25;5053564;28;20090;-63
2021/07/17 05:13:34;;;;;;;10.88;4.50;;;;;;;23.03;51.48;96339.28;5063456;28;20136;-63
2021/07/17 05:16:01;;;;;;;7.90;4.15;;;;;;;23.21;50.76;96337.25;5063067;28;20079;-62
2021/07/17 05:18:28;;;;;;;10.23;5.68;;;;;;;23.32;50.58;96329.13;5063401;28;20060;-62
2021/07/17 05:20:54;;;;;;;12.40;5.40;;;;;;;23.41;51.25;96319.84;5063765;28;20434;-61
2021/07/17 05:23:21;;;;;;;15.43;5.80;;;;;;;23.61;51.22;96322.97;5064311;28;20052;-61
2021/07/17 05:25:50;;;;;;;11.32;5.22;;;;;;;23.61;50.92;96322.97;5064796;28;20107;-63
2021/07/17 05:28:17;;;;;;;10.77;5.43;;;;;;;23.68;50.35;96291.53;5063261;28;20098;-62
2021/07/17 05:30:44;;;;;;;9.98;5.85;;;;;;;24.13;50.04;96316.09;5063160;28;20052;-62
2021/07/17 05:33:11;;;;;;;13.23;5.47;;;;;;;24.17;49.92;96309.00;5064378;28;20064;-63
2021/07/17 05:35:38;;;;;;;10.60;5.07;;;;;;;24.10;49.48;96277.44;5064085;28;20060;-63
2021/07/17 05:38:05;;;;;;;12.25;6.13;;;;;;;24.57;49.27;96320.00;5064283;28;20172;-64
2021/07/17 05:40:32;;;;;;;19.50;5.75;;;;;;;24.29;49.45;96254.25;5063329;28;20056;-63
2021/07/17 05:42:59;;;;;;;13.20;5.38;;;;;;;24.92;49.26;96321.88;5063091;28;20056;-63
2021/07/17 05:45:25;;;;;;;15.48;5.55;;;;;;;24.94;48.81;96319.34;5062724;28;20052;-63
2021/07/17 05:47:52;;;;;;;10.38;5.00;;;;;;;25.09;48.25;96306.00;5062668;28;20056;-63
2021/07/17 05:50:19;;;;;;;18.40;5.45;;;;;;;24.42;48.75;96161.34;5063862;28;20503;-63
2021/07/17 05:52:47;;;;;;;9.18;5.18;;;;;;;25.55;48.04;96308.50;5063817;28;20236;-63
2021/07/17 05:55:15;;;;;;;11.48;5.28;;;;;;;25.21;47.84;96228.41;5061605;28;20053;-63
2021/07/17 05:57:42;;;;;;;11.75;4.88;;;;;;;25.84;48.05;96303.66;5063622;28;20052;-63
2021/07/17 06:00:09;;;;;;;11.43;4.82;;;;;;;25.92;47.91;96315.38;5062637;28;20415;-63
2021/07/17 06:02:36;;;;;;;8.55;6.15;;;;;;;25.92;47.48;96270.75;5062259;28;20159;-63
2021/07/17 06:05:04;;;;;;;10.93;4.85;;;;;;;26.26;47.58;96297.66;5062246;28;20060;-63
2021/07/17 06:07:31;;;;;;;14.07;5.35;;;;;;;26.29;46.43;96299.50;5062495;28;20052;-63
2021/07/17 06:09:58;;;;;;;11.20;6.47;;;;;;;26.37;45.56;96266.59;5061785;28;20110;-64
2021/07/17 06:12:25;;;;;;;11.23;4.75;;;;;;;26.80;44.60;96299.81;5041874;28;20409;-63
2021/07/17 06:14:51;;;;;;;10.15;4.85;;;;;;;27.08;43.69;96300.97;5043473;28;20255;-64
2021/07/17 06:17:18;;;;;;;7.45;4.82;;;;;;;27.18;43.31;96273.97;5042720;28;20072;-63
2021/07/17 06:19:45;;;;;;;6.45;4.45;;;;;;;27.36;43.50;96290.75;5042048;28;20474;-63
2021/07/17 06:22:12;;;;;;;11.35;6.03;;;;;;;27.55;42.68;96286.31;5042072;28;20518;-63
2021/07/17 06:24:39;;;;;;;6.70;4.80;;;;;;;27.53;42.08;96231.97;5038860;28;20763;-64
2021/07/17 06:27:06;;;;;;;8.07;4.22;;;;;;;27.58;41.35;96210.56;5041058;28;20040;-60
2021/07/17 06:29:35;;;;;;;9.23;4.80;;;;;;;28.08;41.51;96280.94;5042763;28;20071;-64
2021/07/17 06:32:03;;;;;;;11.40;4.35;;;;;;;28.17;39.80;96249.41;5041617;28;20060;-64
2021/07/17 06:34:30;;;;;;;6.72;5.15;;;;;;;28.59;39.75;96277.22;5040672;28;20431;-65
2021/07/17 06:36:58;;;;;;;8.75;4.95;;;;;;;28.90;38.73;96274.28;5042058;28;20127;-62
2021/07/17 06:39:24;;;;;;;6.90;4.85;;;;;;;29.11;38.15;96277.78;5041134;28;20494;-61
2021/07/17 06:41:51;;;;;;;9.23;4.95;;;;;;;29.17;38.02;96252.91;5041928;28;20355;-60
2021/07/17 06:44:18;;;;;;;10.43;5.50;;;;;;;29.54;36.89;96265.00;5041754;28;20515;-64
2021/07/17 06:46:45;;;;;;;12.13;4.57;;;;;;;28.17;34.13;96030.09;5041183;28;20053;-65
2021/07/17 06:49:11;;;;;;;11.88;5.25;;;;;;;29.41;34.27;96205.53;5042825;28;20570;-65
2021/07/17 06:51:38;;;;;;;8.27;5.72;;;;;;;29.74;34.88;96221.97;5041328;28;20479;-64
2021/07/17 06:54:05;;;;;;;7.75;4.40;;;;;;;30.18;33.06;96250.56;5040121;28;20091;-61
2021/07/17 06:56:31;;;;;;;11.50;5.28;;;;;;;30.36;33.65;96255.00;5041322;28;20056;-59
2021/07/17 06:58:58;;;;;;;7.63;5.20;;;;;;;30.22;32.96;96204.59;5039974;28;20049;-60
2021/07/17 07:01:25;;;;;;;11.07;5.22;;;;;;;30.68;33.21;96259.88;5039770;28;20132;-65
2021/07/17 07:03:52;;;;;;;10.18;5.07;;;;;;;30.77;33.46;96245.34;5040684;28;20052;-66
2021/07/17 07:06:19;;;;;;;15.05;5.03;;;;;;;30.81;32.92;96240.13;5042975;28;20531;-68
2021/07/17 07:08:46;;;;;;;11.90;5.85;;;;;;;31.03;33.00;96249.97;5045058;28;20049;-60
2021/07/17 07:11:13;;;;;;;6.85;4.93;;;;;;;31.13;32.58;96239.75;5056681;28;20056;-62
2021/07/17 07:13:39;;;;;;;9.32;5.32;;;;;;;31.31;32.55;96248.59;5065107;28;20067;-60
2021/07/17 07:16:06;;;;;;;8.40;4.82;;;;;;;31.02;32.27;96199.75;5065207;28;20052;-63
2021/07/17 07:18:33;;;;;;;10.80;4.80;;;;;;;30.99;32.02;96204.44;5066651;28;20058;-60
2021/07/17 07:21:00;;;;;;;8.77;5.25;;;;;;;31.52;32.49;96240.41;5050344;28;20049;-62
2021/07/17 07:23:26;;;;;;;5.82;4.60;;;;;;;31.60;32.17;96227.84;5046863;28;20136;-60
2021/07/17 07:25:53;;;;;;;9.55;4.95;;;;;;;31.62;31.54;96228.09;5046449;28;20049;-64
2021/07/17 07:28:20;;;;;;;10.20;5.20;;;;;;;30.10;32.53;96037.31;5034510;28;20052;-65
2021/07/17 07:30:47;;;;;;;9.00;6.28;;;;;;;31.52;32.28;96223.22;5036210;28;20048;-65
2021/07/17 07:33:14;;;;;;;10.20;5.05;;;;;;;31.55;32.28;96220.06;5050712;28;20247;-65
2021/07/17 07:35:40;;;;;;;10.95;5.07;;;;;;;31.07;32.66;96205.47;5035072;28;20295;-66
2021/07/17 07:38:07;;;;;;;8.27;4.82;;;;;;;31.45;32.38;96212.31;5034978;28;20053;-65
2021/07/17 07:40:34;;;;;;;9.93;5.05;;;;;;;31.86;32.37;96230.31;5037751;28;20049;-64
2021/07/17 07:43:01;;;;;;;9.13;4.82;;;;;;;32.04;32.79;96218.22;5034735;28;20080;-65
2021/07/17 07:45:28;;;;;;;10.50;5.03;;;;;;;31.82;31.94;96224.06;5034797;28;20052;-63
2021/07/17 07:47:56;;;;;;;7.82;4.80;;;;;;;31.85;32.50;96211.59;5034115;28;20057;-65
2021/07/17 07:50:23;;;;;;;8.25;5.00;;;;;;;31.54;32.47;96192.75;5036197;28;20060;-65
2021/07/17 07:52:50;;;;;;;14.68;5.63;;;;;;;31.82;33.37;96218.34;5027550;28;20156;-65
2021/07/17 07:55:17;;;;;;;14.18;5.85;;;;;;;32.17;32.62;96209.75;5025174;28;20049;-65
2021/07/17 07:57:45;;;;;;;11.82;5.13;;;;;;;32.02;32.58;96215.09;5026641;28;20045;-68
2021/07/17 08:00:13;;;;;;;14.30;6.20;;;;;;;31.79;32.84;96196.50;5025925;28;20056;-66
2021/07/17 08:02:55;;;;;;;7.57;5.70;;;;;;;31.83;32.67;96179.78;5025862;28;20049;-62
2021/07/17 08:05:24;;;;;;;9.02;5.30;;;;;;;32.24;32.21;96187.03;5028413;28;20517;-61
2021/07/17 08:07:52;;;;;;;15.75;5.95;;;;;;;32.50;32.23;96183.66;5032594;28;20136;-65
2021/07/17 08:10:20;;;;;;;9.48;5.20;;;;;;;31.98;31.46;96097.13;5027777;28;20172;-61
2021/07/17 08:12:47;;;;;;;10.20;5.50;;;;;;;32.64;31.50;96173.09;5065361;28;20064;-62
2021/07/17 08:15:14;;;;;;;10.70;5.22;;;;;;;32.81;31.38;96165.84;5065527;28;20053;-61
2021/07/17 08:17:41;;;;;;;12.75;6.07;;;;;;;32.57;31.10;96122.84;5064982;28;20072;-66
2021/07/17 08:20:10;;;;;;;12.02;5.85;;;;;;;32.92;32.14;96194.44;5051985;28;20060;-61
2021/07/17 08:22:38;;;;;;;11.27;6.85;;;;;;;33.09;31.51;96186.41;5054923;28;20128;-65
2021/07/17 08:25:07;;;;;;;12.27;5.63;;;;;;;32.98;31.51;96163.59;5036382;28;20539;-67
2021/07/17 08:27:34;;;;;;;12.88;6.45;;;;;;;33.26;31.36;96189.81;5035305;28;20053;-66
2021/07/17 08:30:01;;;;;;;11.45;6.20;;;;;;;33.33;31.34;96183.47;5032653;28;20095;-65
2021/07/17 08:32:28;;;;;;;12.93;6.53;;;;;;;33.18;30.95;96188.88;5035766;28;20334;-67
2021/07/17 08:34:55;;;;;;;14.10;5.82;;;;;;;32.81;31.57;96111.34;5035693;28;20065;-66
2021/07/17 08:37:22;;;;;;;11.45;5.97;;;;;;;33.41;30.88;96207.44;5039595;28;20052;-67
2021/07/17 08:39:49;;;;;;;13.27;5.72;;;;;;;33.48;30.38;96201.03;5043767;28;20447;-61
2021/07/17 08:42:17;;;;;;;11.20;6.80;;;;;;;33.19;30.29;96193.34;5045650;28;20056;-63
2021/07/17 08:44:47;;;;;;;14.48;5.97;;;;;;;32.68;31.11;96134.19;5044357;28;20060;-62
2021/07/17 08:47:17;;;;;;;10.68;5.28;;;;;;;33.11;31.01;96188.72;5045135;28;20053;-66
2021/07/17 08:49:44;;;;;;;11.25;6.43;;;;;;;33.00;30.29;96154.44;5044926;28;20054;-61
2021/07/17 08:52:11;;;;;;;9.75;5.72;;;;;;;32.83;31.00;96151.75;5043279;28;20067;-61
2021/07/17 08:54:42;;;;;;;8.07;5.57;;;;;;;33.07;31.18;96180.41;5043222;28;20280;-61
2021/07/17 08:57:10;;;;;;;10.15;6.78;;;;;;;33.33;30.65;96177.75;5043336;28;20581;-64
2021/07/17 08:59:38;;;;;;;14.05;8.05;;;;;;;33.39;30.72;96181.34;5043137;28;20060;-60
2021/07/17 09:02:06;;;;;;;18.33;6.75;;;;;;;33.23;30.80;96130.63;5044139;28;20136;-68
2021/07/17 09:04:35;;;;;;;9.60;5.43;;;;;;;33.67;29.91;96167.34;5045037;28;20053;-64
2021/07/17 09:07:02;;;;;;;17.05;7.82;;;;;;;33.25;30.41;96185.41;5044330;28;20056;-68
2021/07/17 09:09:30;;;;;;;9.90;5.55;;;;;;;33.14;30.62;96136.75;5042987;28;20484;-69
2021/07/17 09:11:58;;;;;;;12.52;6.63;;;;;;;33.52;30.80;96178.53;5055795;28;20135;-66
2021/07/17 09:14:39;;;;;;;14.23;8.25;;;;;;;33.56;30.21;96138.78;5064289;28;20515;-65
2021/07/17 09:17:07;;;;;;;13.43;5.70;;;;;;;33.80;30.32;96175.25;5038125;28;20162;-66
2021/07/17 09:19:34;;;;;;;8.15;5.30;;;;;;;33.94;30.03;96173.25;5039583;28;20499;-67
2021/07/17 09:22:02;;;;;;;12.63;5.85;;;;;;;34.13;30.03;96173.97;5039972;28;20057;-66
2021/07/17 09:24:29;;;;;;;11.48;7.55;;;;;;;33.70;29.94;96171.22;5024509;28;20519;-67
2021/07/17 09:27:02;;;;;;;12.13;7.95;;;;;;;32.61;31.01;96152.00;5023717;28;20512;-66
2021/07/17 09:29:38;;;;;;;;;;;;;;;33.24;30.35;96163.78;5024763;28;20045;-67
2021/07/17 09:32:06;;;;;;;8.07;5.60;;;;;;;33.32;30.57;96158.94;5029994;28;19948;-68
2021/07/17 09:34:34;;;;;;;10.02;5.93;;;;;;;33.28;30.65;96069.47;5034063;28;20049;-66
2021/07/17 09:37:12;;;;;;;11.35;7.30;;;;;;;33.98;30.74;96130.56;5044116;28;20545;-65
2021/07/17 09:39:49;;;;;;;9.70;6.20;;;;;;;33.93;31.16;96142.94;5043435;28;20429;-65
2021/07/17 09:42:19;;;;;;;9.82;6.47;;;;;;;32.96;31.73;96143.25;5043565;28;20530;-67
2021/07/17 09:44:52;;;;;;;6.38;5.60;;;;;;;33.36;30.99;96130.69;5042645;28;20063;-67
2021/07/17 09:47:18;;;;;;;8.88;6.50;;;;;;;33.64;30.36;96133.94;5043666;28;20048;-66
2021/07/17 09:49:46;;;;;;;9.98;6.55;;;;;;;33.61;30.97;96112.06;5044173;28;20440;-67
2021/07/17 09:52:17;;;;;;;12.95;6.55;;;;;;;33.51;31.27;96125.25;5044045;28;20059;-64
2021/07/17 09:55:11;;;;;;;13.93;6.65;;;;;;;33.99;30.67;96135.00;5042620;28;20049;-65
2021/07/17 09:57:39;;;;;;;9.02;6.82;;;;;;;34.60;29.77;96137.56;5056741;28;20056;-63
2021/07/17 10:00:14;;;;;;;9.07;7.28;;;;;;;34.78;29.07;96130.91;5042116;28;20056;-63
2021/07/17 10:02:52;;;;;;;9.73;6.25;;;;;;;34.88;29.18;96138.59;5042647;28;20144;-61
2021/07/17 10:05:37;;;;;;;10.25;5.47;;;;;;;35.14;28.68;96132.03;5041912;28;20115;-61
2021/07/17 10:08:13;;;;;;;10.98;5.60;;;;;;;35.28;28.48;96103.97;5041883;28;20072;-63
2021/07/17 10:10:41;;;;;;;11.13;7.68;;;;;;;35.27;28.86;96132.00;5041769;28;20059;-62
2021/07/17 10:13:08;;;;;;;15.13;7.15;;;;;;;33.83;31.52;96122.41;5058149;28;20533;-60
2021/07/17 10:15:35;;;;;;;10.43;7.18;;;;;;;33.47;33.42;96067.38;5061435;28;20182;-63
2021/07/17 10:18:39;;;;;;;8.57;6.78;;;;;;;33.68;33.00;96131.56;5061413;28;20063;-63
2021/07/17 10:20:59;;;;;;;8.15;6.82;;;;;;;34.14;32.72;96130.28;5062687;28;20463;-61
2021/07/17 10:23:27;;;;;;;7.72;6.88;;;;;;;34.10;31.34;96129.06;5060649;28;20049;-62
2021/07/17 10:25:53;;;;;;;8.63;6.07;;;;;;;34.35;33.07;96144.81;5064066;28;20138;-63
2021/07/17 10:28:23;;;;;;;11.45;7.18;;;;;;;34.51;32.28;96118.63;5063577;28;20472;-60
2021/07/17 10:30:50;;;;;;;5.95;5.40;;;;;;;33.14;33.67;96124.50;5063606;28;20054;-60
2021/07/17 10:33:17;;;;;;;10.27;6.57;;;;;;;33.40;33.29;96116.81;5063427;28;20056;-61
2021/07/17 10:35:46;;;;;;;8.95;7.80;;;;;;;34.04;32.97;96119.72;5063058;28;20510;-61
2021/07/17 10:38:19;;;;;;;12.93;7.95;;;;;;;33.78;33.41;96125.38;5062090;28;20142;-61
2021/07/17 10:40:48;;;;;;;12.15;6.28;;;;;;;34.77;31.02;96117.84;5061343;28;20056;-60
2021/07/17 10:43:16;;;;;;;7.25;6.35;;;;;;;33.95;30.73;96106.56;5062409;28;20063;-62
2021/07/17 10:45:44;;;;;;;10.35;7.00;;;;;;;33.54;31.91;96109.81;5063015;28;20065;-61
2021/07/17 10:48:23;;;;;;;14.15;9.13;;;;;;;33.70;30.93;96114.53;5062818;28;20547;-62
2021/07/17 10:50:50;;;;;;;13.57;7.95;;;;;;;33.64;31.77;96110.19;5062791;28;20523;-63
2021/07/17 10:53:48;;;;;;;11.55;6.65;;;;;;;33.68;31.18;96127.91;5061382;28;20052;-63
2021/07/17 10:56:27;;;;;;;13.35;6.07;;;;;;;33.53;31.78;96099.66;5062786;28;20511;-61
2021/07/17 10:58:54;;;;;;;7.18;6.47;;;;;;;34.29;30.58;96066.50;5062032;28;20600;-63
2021/07/17 11:01:22;;;;;;;6.82;6.15;;;;;;;35.13;29.62;96105.34;5061694;28;20151;-63
2021/07/17 11:03:50;;;;;;;13.60;6.45;;;;;;;35.32;29.06;96104.38;5060992;28;20076;-62
2021/07/17 11:06:37;;;;;;;9.93;5.57;;;;;;;35.78;27.40;96101.47;5062905;28;20094;-62
2021/07/17 11:09:27;;;;;;;6.40;5.57;;;;;;;35.76;27.25;96112.03;5063118;28;20076;-60
2021/07/17 11:12:28;;;;;;;8.40;6.18;;;;;;;35.78;26.16;96113.00;5055756;28;20146;-61
2021/07/17 11:15:15;;;;;;;7.60;5.13;;;;;;;35.97;25.91;96118.59;5029694;28;20049;-62
2021/07/17 11:17:47;;;;;;;9.77;6.15;;;;;;;35.93;25.55;96101.63;5040807;28;20055;-61
2021/07/17 11:20:27;;;;;;;6.53;5.47;;;;;;;35.61;25.12;96060.00;5043124;28;20056;-62
2021/07/17 11:23:04;;;;;;;7.10;5.03;;;;;;;36.24;24.86;96108.47;5041499;28;20052;-61
2021/07/17 11:25:32;;;;;;;5.75;4.82;;;;;;;36.48;24.42;96102.34;5042191;28;20057;-61
2021/07/17 11:27:59;;;;;;;9.88;4.93;;;;;;;36.08;24.57;96049.09;5041337;28;20056;-61
2021/07/17 11:30:33;;;;;;;7.78;4.20;;;;;;;35.94;24.52;96039.78;5042666;28;20672;-61
2021/07/17 11:33:06;;;;;;;10.70;4.82;;;;;;;36.48;24.58;96105.22;5041226;28;20057;-62
2021/07/17 11:35:37;;;;;;;;;;;;;;;36.53;24.52;96100.63;5043388;28;20049;-63
2021/07/17 11:38:06;;;;;;;12.55;5.85;;;;;;;36.52;24.63;96076.00;5041098;28;19932;-61